Time;durP1;ratioP1;P1;durP2;ratioP2;P2;SDS_P1;SDS_P2;PMS_P1;PMS_P2;Temp;Humidity;BMP_temperature;BMP_pressure;BME280_temperature;BME280_humidity;BME280_pressure;Samples;Min_cycle;Max_cycle;Signal;HPM_P1;HPM_P2
2024/04/14 00:00:45;;;;;;;70.43;32.67;;;;;;;;;;5401763;26;19988;-40
2024/04/14 00:03:13;;;;;;;44.55;31.08;;;;;;;;;;5402201;26;19992;-46
2024/04/14 00:05:40;;;;;;;85.80;33.83;;;;;;;;;;5406546;26;19999;-42
2024/04/14 00:08:07;;;;;;;54.25;32.50;;;;;;;;;;5395686;26;20089;-39
2024/04/14 00:10:33;;;;;;;47.55;30.80;;;;;;;;;;5396856;26;19991;-38
2024/04/14 00:13:00;;;;;;;35.58;31.02;;;;;;;;;;5396237;26;19992;-45
2024/04/14 00:15:26;;;;;;;41.53;30.60;;;;;;;;;;5396794;26;20099;-35
2024/04/14 00:17:53;;;;;;;38.40;30.88;;;;;;;;;;5396462;26;20212;-35
2024/04/14 00:20:22;;;;;;;44.97;31.20;;;;;;;;;;5416383;26;19991;-46
2024/04/14 00:22:49;;;;;;;46.28;30.95;;;;;;;;;;5396732;26;19999;-45
2024/04/14 00:25:16;;;;;;;36.33;30.65;;;;;;;;;;5396761;26;20008;-48
2024/04/14 00:27:42;;;;;;;40.83;30.80;;;;;;;;;;5396155;26;20016;-46
2024/04/14 00:30:09;;;;;;;43.42;30.95;;;;;;;;;;5420976;26;20070;-51
2024/04/14 00:32:36;;;;;;;37.92;30.83;;;;;;;;;;5412079;26;19996;-37
2024/04/14 00:35:03;;;;;;;46.38;29.67;;;;;;;;;;5432081;26;19990;-43
2024/04/14 00:37:29;;;;;;;35.90;30.17;;;;;;;;;;5431595;26;20096;-41
2024/04/14 00:39:56;;;;;;;33.80;29.40;;;;;;;;;;5432062;26;20081;-47
2024/04/14 00:42:22;;;;;;;37.45;29.15;;;;;;;;;;5431872;26;20096;-46
2024/04/14 00:44:49;;;;;;;38.58;28.98;;;;;;;;;;5431241;26;19991;-49
2024/04/14 00:47:15;;;;;;;60.00;30.90;;;;;;;;;;5430762;26;19992;-39
2024/04/14 00:49:42;;;;;;;44.65;28.27;;;;;;;;;;5431505;26;20060;-45
2024/04/14 00:52:10;;;;;;;46.63;29.02;;;;;;;;;;5428817;26;19994;-44
2024/04/14 00:54:37;;;;;;;38.65;28.75;;;;;;;;;;5431143;26;20100;-39
2024/04/14 00:57:04;;;;;;;38.17;29.38;;;;;;;;;;5431011;26;20011;-55
2024/04/14 00:59:31;;;;;;;32.92;29.23;;;;;;;;;;5430677;26;19995;-42
2024/04/14 01:01:58;;;;;;;31.98;28.38;;;;;;;;;;5430071;26;19997;-42
2024/04/14 01:04:25;;;;;;;35.25;27.90;;;;;;;;;;5431212;26;19992;-44
2024/04/14 01:06:51;;;;;;;80.90;29.52;;;;;;;;;;5435281;26;19999;-47
2024/04/14 01:09:18;;;;;;;33.75;27.55;;;;;;;;;;5432235;26;20049;-38
2024/04/14 01:11:45;;;;;;;35.13;27.73;;;;;;;;;;5438053;26;20188;-43
2024/04/14 01:14:11;;;;;;;36.88;27.63;;;;;;;;;;5467365;26;19990;-39
2024/04/14 01:16:39;;;;;;;36.28;27.38;;;;;;;;;;5460151;26;19994;-39
2024/04/14 01:19:06;;;;;;;32.88;26.85;;;;;;;;;;5412542;26;20007;-45
2024/04/14 01:21:35;;;;;;;39.30;27.60;;;;;;;;;;5411039;26;19984;-46
2024/04/14 01:24:02;;;;;;;31.88;27.05;;;;;;;;;;5415555;26;20189;-39
2024/04/14 01:26:28;;;;;;;36.83;25.98;;;;;;;;;;5395613;26;20098;-42
2024/04/14 01:28:55;;;;;;;32.13;25.98;;;;;;;;;;5442610;26;19990;-38
2024/04/14 01:31:22;;;;;;;28.30;25.23;;;;;;;;;;5458546;26;19986;-44
2024/04/14 01:33:48;;;;;;;29.08;26.02;;;;;;;;;;5445839;26;20005;-38
2024/04/14 01:36:15;;;;;;;29.55;26.42;;;;;;;;;;5437779;26;20104;-39
2024/04/14 01:38:41;;;;;;;28.92;25.05;;;;;;;;;;5431100;26;20104;-39
2024/04/14 01:41:10;;;;;;;31.65;26.75;;;;;;;;;;5420057;26;20012;-43
2024/04/14 01:43:36;;;;;;;31.15;25.00;;;;;;;;;;5431186;26;19987;-45
2024/04/14 01:46:03;;;;;;;28.55;25.58;;;;;;;;;;5442494;26;19987;-39
2024/04/14 01:48:29;;;;;;;30.08;25.02;;;;;;;;;;5432242;26;19996;-41
2024/04/14 01:50:57;;;;;;;33.78;26.27;;;;;;;;;;5430207;26;19987;-44
2024/04/14 01:53:23;;;;;;;29.63;25.60;;;;;;;;;;5449568;26;20125;-45
2024/04/14 01:55:50;;;;;;;30.25;24.95;;;;;;;;;;5466912;26;20002;-37
2024/04/14 01:58:16;;;;;;;31.17;24.23;;;;;;;;;;5463577;26;19999;-45
2024/04/14 02:00:43;;;;;;;31.77;24.25;;;;;;;;;;5463886;26;20003;-46
2024/04/14 02:03:10;;;;;;;29.55;25.42;;;;;;;;;;5463658;26;20035;-44
2024/04/14 02:05:36;;;;;;;32.05;25.35;;;;;;;;;;5463526;26;20015;-44
2024/04/14 02:08:03;;;;;;;39.17;25.05;;;;;;;;;;5463487;26;19987;-40
2024/04/14 02:10:29;;;;;;;49.78;26.27;;;;;;;;;;5463610;26;20011;-41
2024/04/14 02:12:56;;;;;;;36.92;24.25;;;;;;;;;;5463648;26;19987;-47
2024/04/14 02:15:22;;;;;;;31.02;24.65;;;;;;;;;;5466433;26;19998;-46
2024/04/14 02:17:49;;;;;;;49.95;26.25;;;;;;;;;;5466476;26;19990;-43
2024/04/14 02:20:16;;;;;;;39.38;25.65;;;;;;;;;;5466455;26;19987;-44
2024/04/14 02:22:43;;;;;;;34.90;24.83;;;;;;;;;;5466067;26;19995;-44
2024/04/14 02:25:09;;;;;;;37.92;25.90;;;;;;;;;;5466205;26;19986;-46
2024/04/14 02:27:36;;;;;;;35.03;25.58;;;;;;;;;;5465607;26;19994;-44
2024/04/14 02:30:03;;;;;;;39.03;24.30;;;;;;;;;;5439152;26;19992;-41
2024/04/14 02:32:29;;;;;;;30.88;24.85;;;;;;;;;;5412112;26;19993;-47
2024/04/14 02:34:56;;;;;;;33.15;25.10;;;;;;;;;;5415049;26;20002;-40
2024/04/14 02:37:23;;;;;;;35.28;23.55;;;;;;;;;;5465732;26;19986;-46
2024/04/14 02:39:50;;;;;;;31.42;24.25;;;;;;;;;;5466056;26;19994;-41
2024/04/14 02:42:17;;;;;;;31.02;24.15;;;;;;;;;;5465575;26;20015;-46
2024/04/14 02:44:43;;;;;;;27.38;23.10;;;;;;;;;;5465784;26;19997;-39
2024/04/14 02:47:10;;;;;;;30.33;23.48;;;;;;;;;;5458474;26;20145;-39
2024/04/14 02:49:37;;;;;;;32.78;23.58;;;;;;;;;;5412758;26;20093;-37
2024/04/14 02:52:04;;;;;;;27.55;22.85;;;;;;;;;;5441271;26;19986;-39
2024/04/14 02:54:30;;;;;;;30.88;23.65;;;;;;;;;;5465281;26;20138;-39
2024/04/14 02:56:57;;;;;;;26.95;23.15;;;;;;;;;;5465029;26;19993;-41
2024/04/14 02:59:23;;;;;;;31.52;23.40;;;;;;;;;;5465110;26;19990;-48
2024/04/14 03:01:50;;;;;;;25.10;22.50;;;;;;;;;;5465583;26;19991;-37
2024/04/14 03:04:16;;;;;;;29.35;23.50;;;;;;;;;;5465331;26;19987;-38
2024/04/14 03:06:43;;;;;;;26.33;23.50;;;;;;;;;;5465031;26;19994;-38
2024/04/14 03:09:10;;;;;;;26.35;22.73;;;;;;;;;;5465512;26;20195;-43
2024/04/14 03:11:36;;;;;;;26.90;23.40;;;;;;;;;;5464907;26;20092;-40
2024/04/14 03:14:03;;;;;;;28.80;23.20;;;;;;;;;;5465105;26;19983;-43
2024/04/14 03:16:29;;;;;;;26.42;23.35;;;;;;;;;;5464919;26;19987;-40
2024/04/14 03:18:56;;;;;;;31.02;22.00;;;;;;;;;;5414310;26;19996;-41
2024/04/14 03:21:22;;;;;;;27.00;21.38;;;;;;;;;;5428594;26;20045;-46
2024/04/14 03:23:49;;;;;;;34.22;22.85;;;;;;;;;;5465091;26;19986;-37
2024/04/14 03:26:16;;;;;;;30.27;22.40;;;;;;;;;;5467140;26;20003;-42
2024/04/14 03:28:42;;;;;;;25.13;22.02;;;;;;;;;;5468662;26;19997;-39
2024/04/14 03:31:09;;;;;;;25.55;23.02;;;;;;;;;;5467956;26;20051;-41
2024/04/14 03:33:35;;;;;;;24.70;21.88;;;;;;;;;;5468157;26;19987;-37
2024/04/14 03:36:03;;;;;;;25.00;21.98;;;;;;;;;;5468313;26;20192;-38
2024/04/14 03:38:30;;;;;;;26.25;22.23;;;;;;;;;;5468150;26;20007;-39
2024/04/14 03:40:56;;;;;;;29.05;22.00;;;;;;;;;;5448685;26;20013;-43
2024/04/14 03:43:24;;;;;;;26.58;20.80;;;;;;;;;;5413095;26;20004;-41
2024/04/14 03:45:51;;;;;;;30.17;21.52;;;;;;;;;;5396426;26;20001;-38
2024/04/14 03:48:17;;;;;;;27.67;22.23;;;;;;;;;;5396701;26;19995;-42
2024/04/14 03:50:47;;;;;;;31.58;22.45;;;;;;;;;;5396527;26;19984;-40
2024/04/14 03:53:13;;;;;;;26.50;21.05;;;;;;;;;;5437960;26;19994;-42
2024/04/14 03:55:40;;;;;;;23.88;21.25;;;;;;;;;;5438435;26;20212;-43
2024/04/14 03:58:06;;;;;;;23.83;21.20;;;;;;;;;;5467864;26;19991;-43
2024/04/14 04:00:33;;;;;;;27.65;21.55;;;;;;;;;;5467903;26;19990;-44
2024/04/14 04:03:00;;;;;;;23.63;21.42;;;;;;;;;;5468376;26;20088;-41
2024/04/14 04:05:26;;;;;;;24.25;20.65;;;;;;;;;;5468141;26;19997;-38
2024/04/14 04:07:53;;;;;;;24.17;21.52;;;;;;;;;;5467514;26;19987;-42
2024/04/14 04:10:19;;;;;;;25.52;21.05;;;;;;;;;;5467812;26;20176;-50
2024/04/14 04:12:47;;;;;;;21.92;19.85;;;;;;;;;;5467949;26;19987;-47
2024/04/14 04:15:13;;;;;;;23.58;21.23;;;;;;;;;;5468067;26;20081;-38
2024/04/14 04:17:40;;;;;;;23.85;20.33;;;;;;;;;;5468126;26;19987;-48
2024/04/14 04:20:07;;;;;;;23.67;19.88;;;;;;;;;;5468147;26;19990;-44
2024/04/14 04:22:33;;;;;;;24.92;21.58;;;;;;;;;;5468041;26;19990;-44
2024/04/14 04:25:00;;;;;;;24.23;21.38;;;;;;;;;;5467900;26;20002;-44
2024/04/14 04:27:26;;;;;;;23.63;21.27;;;;;;;;;;5458279;26;20004;-50
2024/04/14 04:29:53;;;;;;;21.63;19.52;;;;;;;;;;5432014;26;19983;-44
2024/04/14 04:32:21;;;;;;;25.02;20.98;;;;;;;;;;5431808;26;19988;-38
2024/04/14 04:34:48;;;;;;;22.30;20.00;;;;;;;;;;5431901;26;19987;-43
2024/04/14 04:37:14;;;;;;;23.25;20.85;;;;;;;;;;5430129;26;19991;-53
2024/04/14 04:39:41;;;;;;;23.63;20.40;;;;;;;;;;5431912;26;19995;-42
2024/04/14 04:42:08;;;;;;;24.33;20.55;;;;;;;;;;5431809;26;19998;-44
2024/04/14 04:44:34;;;;;;;21.52;19.52;;;;;;;;;;5431501;26;19987;-44
2024/04/14 04:47:01;;;;;;;23.02;20.63;;;;;;;;;;5431669;26;20024;-47
2024/04/14 04:49:27;;;;;;;23.08;20.77;;;;;;;;;;5431669;26;19990;-46
2024/04/14 04:51:54;;;;;;;22.98;20.45;;;;;;;;;;5431451;26;20097;-41
2024/04/14 04:54:21;;;;;;;23.63;19.73;;;;;;;;;;5431776;26;19998;-44
2024/04/14 04:56:47;;;;;;;23.95;20.67;;;;;;;;;;5431705;26;19983;-43
2024/04/14 04:59:14;;;;;;;22.75;20.15;;;;;;;;;;5431610;26;19991;-40
2024/04/14 05:01:40;;;;;;;22.17;19.98;;;;;;;;;;5431413;26;19998;-42
2024/04/14 05:04:07;;;;;;;23.13;20.05;;;;;;;;;;5431547;26;20020;-49
2024/04/14 05:06:33;;;;;;;22.00;19.73;;;;;;;;;;5431490;26;20011;-38
2024/04/14 05:09:00;;;;;;;22.95;20.23;;;;;;;;;;5431306;26;19991;-37
2024/04/14 05:11:27;;;;;;;24.95;20.48;;;;;;;;;;5431202;26;20012;-47
2024/04/14 05:13:53;;;;;;;25.58;19.85;;;;;;;;;;5431424;26;19988;-42
2024/04/14 05:16:20;;;;;;;26.33;20.75;;;;;;;;;;5416519;26;20057;-53
2024/04/14 05:18:46;;;;;;;21.95;19.67;;;;;;;;;;5423442;26;19987;-41
2024/04/14 05:21:13;;;;;;;22.00;19.67;;;;;;;;;;5431369;26;20168;-42
2024/04/14 05:23:39;;;;;;;21.55;19.30;;;;;;;;;;5431254;26;20085;-47
2024/04/14 05:26:06;;;;;;;22.83;19.48;;;;;;;;;;5431151;26;20019;-41
2024/04/14 05:28:33;;;;;;;21.65;19.35;;;;;;;;;;5431003;26;19983;-39
2024/04/14 05:30:59;;;;;;;23.20;19.15;;;;;;;;;;5431142;26;20003;-40
2024/04/14 05:33:26;;;;;;;21.13;19.08;;;;;;;;;;5431163;26;20040;-40
2024/04/14 05:35:53;;;;;;;23.13;19.75;;;;;;;;;;5430997;26;20045;-39
2024/04/14 05:38:20;;;;;;;21.25;19.25;;;;;;;;;;5430720;26;19987;-40
2024/04/14 05:40:46;;;;;;;22.48;20.17;;;;;;;;;;5431025;26;20197;-42
2024/04/14 05:43:13;;;;;;;25.08;20.50;;;;;;;;;;5431032;26;19995;-37
2024/04/14 05:45:39;;;;;;;22.48;20.08;;;;;;;;;;5430625;26;19999;-40
2024/04/14 05:48:06;;;;;;;21.20;18.88;;;;;;;;;;5430473;26;19987;-45
2024/04/14 05:50:33;;;;;;;21.60;19.40;;;;;;;;;;5430773;26;20101;-41
2024/04/14 05:52:59;;;;;;;22.50;20.15;;;;;;;;;;5430612;26;20088;-48
2024/04/14 05:55:26;;;;;;;23.25;20.85;;;;;;;;;;5430865;26;20100;-51
2024/04/14 05:57:53;;;;;;;23.35;21.02;;;;;;;;;;5430499;26;20092;-42
2024/04/14 06:00:19;;;;;;;23.13;20.92;;;;;;;;;;5430580;26;20151;-43
2024/04/14 06:02:46;;;;;;;26.80;21.42;;;;;;;;;;5430734;26;19992;-45
2024/04/14 06:05:12;;;;;;;21.75;19.48;;;;;;;;;;5430680;26;20093;-40
2024/04/14 06:07:39;;;;;;;25.38;20.80;;;;;;;;;;5430621;26;19994;-47
2024/04/14 06:10:05;;;;;;;26.17;20.17;;;;;;;;;;5430637;26;19991;-40
2024/04/14 06:12:32;;;;;;;23.27;19.60;;;;;;;;;;5430520;26;20136;-37
2024/04/14 06:15:00;;;;;;;23.65;19.75;;;;;;;;;;5430447;26;19987;-42
2024/04/14 06:17:27;;;;;;;22.05;19.00;;;;;;;;;;5430127;26;20002;-45
2024/04/14 06:19:55;;;;;;;22.30;19.88;;;;;;;;;;5430397;26;20070;-40
2024/04/14 06:22:21;;;;;;;22.90;20.13;;;;;;;;;;5430205;26;20008;-47
2024/04/14 06:24:48;;;;;;;23.90;20.00;;;;;;;;;;5430125;26;20020;-41
2024/04/14 06:27:14;;;;;;;24.10;20.23;;;;;;;;;;5430135;26;19988;-42
2024/04/14 06:29:41;;;;;;;22.15;19.80;;;;;;;;;;5430254;26;19998;-40
2024/04/14 06:32:07;;;;;;;24.65;20.08;;;;;;;;;;5429996;26;20041;-39
2024/04/14 06:34:34;;;;;;;21.63;19.30;;;;;;;;;;5430385;26;20002;-39
2024/04/14 06:37:01;;;;;;;21.98;19.60;;;;;;;;;;5430086;26;19995;-38
2024/04/14 06:39:27;;;;;;;21.27;18.92;;;;;;;;;;5429798;26;19988;-37
2024/04/14 06:41:54;;;;;;;25.02;19.10;;;;;;;;;;5429759;26;19994;-41
2024/04/14 06:44:20;;;;;;;21.65;19.33;;;;;;;;;;5430106;26;19988;-49
2024/04/14 06:46:47;;;;;;;22.58;18.98;;;;;;;;;;5429621;26;20049;-43
2024/04/14 06:49:14;;;;;;;21.42;19.33;;;;;;;;;;5429802;26;20204;-41
2024/04/14 06:51:40;;;;;;;22.85;18.50;;;;;;;;;;5429759;26;20084;-51
2024/04/14 06:54:07;;;;;;;24.00;18.35;;;;;;;;;;5429727;26;20195;-40
2024/04/14 06:56:35;;;;;;;19.85;17.35;;;;;;;;;;5429658;26;20138;-45
2024/04/14 06:59:02;;;;;;;19.98;17.98;;;;;;;;;;5429808;26;19992;-49
2024/04/14 07:01:28;;;;;;;20.25;18.13;;;;;;;;;;5432185;26;19998;-52
2024/04/14 07:03:55;;;;;;;21.55;18.17;;;;;;;;;;5433255;26;19983;-46
2024/04/14 07:06:21;;;;;;;20.63;18.38;;;;;;;;;;5433074;26;19988;-47
2024/04/14 07:08:48;;;;;;;20.38;18.08;;;;;;;;;;5432920;26;19987;-44
2024/04/14 07:11:15;;;;;;;20.83;18.10;;;;;;;;;;5433177;26;20114;-40
2024/04/14 07:13:41;;;;;;;20.30;18.15;;;;;;;;;;5421129;26;20020;-48
2024/04/14 07:16:08;;;;;;;19.95;17.92;;;;;;;;;;5409789;26;19992;-48
2024/04/14 07:18:35;;;;;;;20.65;18.50;;;;;;;;;;5397625;26;19995;-43
2024/04/14 07:21:05;;;;;;;20.60;18.50;;;;;;;;;;5397392;26;19989;-43
2024/04/14 07:23:33;;;;;;;21.58;19.27;;;;;;;;;;5397130;26;19984;-42
2024/04/14 07:25:59;;;;;;;23.45;19.27;;;;;;;;;;5397297;26;20086;-40
2024/04/14 07:28:26;;;;;;;21.25;19.08;;;;;;;;;;5397239;26;20093;-44
2024/04/14 07:30:52;;;;;;;21.65;18.80;;;;;;;;;;5396975;26;20105;-39
2024/04/14 07:33:19;;;;;;;21.90;18.52;;;;;;;;;;5397119;26;20093;-43
2024/04/14 07:35:45;;;;;;;21.17;19.05;;;;;;;;;;5397448;26;20093;-41
2024/04/14 07:38:12;;;;;;;21.90;18.70;;;;;;;;;;5396666;26;19995;-47
2024/04/14 07:40:39;;;;;;;21.17;19.00;;;;;;;;;;5396923;26;20024;-45
2024/04/14 07:43:07;;;;;;;22.70;19.45;;;;;;;;;;5397125;26;20000;-47
2024/04/14 07:45:33;;;;;;;417.27;42.72;;;;;;;;;;5396955;26;19992;-41
2024/04/14 07:48:00;;;;;;;202.82;28.92;;;;;;;;;;5396960;26;19992;-42
2024/04/14 07:50:27;;;;;;;111.28;24.35;;;;;;;;;;5396798;26;19995;-45
2024/04/14 07:52:53;;;;;;;76.10;22.25;;;;;;;;;;5396867;26;20004;-44
2024/04/14 07:55:20;;;;;;;57.20;21.67;;;;;;;;;;5396894;26;20193;-38
2024/04/14 07:57:46;;;;;;;44.50;20.67;;;;;;;;;;5396535;26;19992;-43
2024/04/14 08:00:13;;;;;;;41.92;20.10;;;;;;;;;;5396743;26;20010;-40
2024/04/14 08:02:42;;;;;;;32.85;18.85;;;;;;;;;;5396626;26;19995;-40
2024/04/14 08:05:08;;;;;;;32.53;19.60;;;;;;;;;;5396719;26;19988;-43
2024/04/14 08:07:35;;;;;;;30.13;18.83;;;;;;;;;;5396657;26;19996;-38
2024/04/14 08:10:02;;;;;;;26.95;19.35;;;;;;;;;;5396976;26;19992;-40
2024/04/14 08:12:28;;;;;;;28.60;19.02;;;;;;;;;;5396506;26;19996;-42
2024/04/14 08:14:55;;;;;;;21.45;18.77;;;;;;;;;;5396666;26;19988;-38
2024/04/14 08:17:22;;;;;;;20.45;18.42;;;;;;;;;;5396525;26;19999;-37
2024/04/14 08:19:49;;;;;;;23.90;18.23;;;;;;;;;;5396859;26;20003;-44
2024/04/14 08:22:16;;;;;;;20.52;18.35;;;;;;;;;;5396435;26;19984;-41
2024/04/14 08:24:43;;;;;;;21.58;18.20;;;;;;;;;;5396298;26;19988;-43
2024/04/14 08:27:09;;;;;;;22.02;19.65;;;;;;;;;;5396620;26;20089;-45
2024/04/14 08:29:37;;;;;;;21.27;17.83;;;;;;;;;;5396506;26;20208;-41
2024/04/14 08:32:04;;;;;;;20.38;18.20;;;;;;;;;;5396208;26;20035;-49
2024/04/14 08:34:30;;;;;;;20.17;18.00;;;;;;;;;;5396275;26;20000;-39
2024/04/14 08:36:57;;;;;;;20.20;18.00;;;;;;;;;;5396283;26;19992;-39
2024/04/14 08:39:23;;;;;;;22.35;17.30;;;;;;;;;;5395994;26;19992;-41
2024/04/14 08:41:50;;;;;;;18.73;16.83;;;;;;;;;;5396222;26;19992;-45
2024/04/14 08:44:17;;;;;;;21.35;17.73;;;;;;;;;;5396224;26;19999;-44
2024/04/14 08:46:44;;;;;;;20.67;18.08;;;;;;;;;;5396092;26;19992;-43
2024/04/14 08:49:14;;;;;;;20.25;18.10;;;;;;;;;;5396157;26;20009;-41
2024/04/14 08:51:40;;;;;;;22.10;17.65;;;;;;;;;;5396583;26;20201;-47
2024/04/14 08:54:07;;;;;;;19.63;17.83;;;;;;;;;;5396108;26;19995;-41
2024/04/14 08:56:35;;;;;;;19.52;17.38;;;;;;;;;;5395830;26;19988;-44
2024/04/14 08:59:08;;;;;;;19.42;17.38;;;;;;;;;;5466542;26;19995;-42
2024/04/14 09:01:35;;;;;;;20.73;18.02;;;;;;;;;;5467262;26;20195;-43
2024/04/14 09:04:05;;;;;;;24.80;18.00;;;;;;;;;;5467526;26;20043;-42
2024/04/14 09:06:33;;;;;;;20.67;17.48;;;;;;;;;;5467302;26;19998;-46
2024/04/14 09:09:00;;;;;;;19.08;17.17;;;;;;;;;;5467464;26;19983;-48
2024/04/14 09:11:27;;;;;;;19.77;17.30;;;;;;;;;;5467345;26;20081;-46
2024/04/14 09:13:53;;;;;;;24.23;18.02;;;;;;;;;;5467437;26;20019;-41
2024/04/14 09:16:20;;;;;;;21.02;17.90;;;;;;;;;;5467015;26;20003;-45
2024/04/14 09:18:47;;;;;;;20.55;18.40;;;;;;;;;;5467256;26;19995;-46
2024/04/14 09:21:13;;;;;;;19.67;17.58;;;;;;;;;;5467167;26;20167;-46
2024/04/14 09:23:40;;;;;;;19.83;17.83;;;;;;;;;;5466082;26;20210;-42
2024/04/14 09:26:07;;;;;;;20.15;18.05;;;;;;;;;;5467073;26;20201;-41
2024/04/14 09:28:33;;;;;;;20.08;17.75;;;;;;;;;;5467123;26;19986;-42
2024/04/14 09:31:00;;;;;;;19.75;17.63;;;;;;;;;;5466723;26;20044;-46
2024/04/14 09:33:27;;;;;;;19.50;16.50;;;;;;;;;;5466808;26;19991;-43
2024/04/14 09:35:54;;;;;;;23.15;17.73;;;;;;;;;;5467096;26;19998;-39
2024/04/14 09:38:21;;;;;;;20.60;18.40;;;;;;;;;;5466632;26;20019;-45
2024/04/14 09:40:49;;;;;;;19.90;17.70;;;;;;;;;;5466774;26;19989;-43
2024/04/14 09:43:19;;;;;;;19.52;17.65;;;;;;;;;;5466802;26;19991;-48
2024/04/14 09:45:48;;;;;;;19.40;17.38;;;;;;;;;;5466670;26;19983;-42
2024/04/14 09:48:15;;;;;;;24.25;18.05;;;;;;;;;;5467007;26;20091;-43
2024/04/14 09:50:44;;;;;;;21.75;18.23;;;;;;;;;;5466812;26;19983;-41
2024/04/14 09:53:11;;;;;;;19.80;17.80;;;;;;;;;;5466830;26;19991;-42
2024/04/14 09:55:38;;;;;;;22.05;18.38;;;;;;;;;;5466754;26;20196;-40
2024/04/14 09:58:06;;;;;;;19.80;17.70;;;;;;;;;;5466544;26;20019;-39
2024/04/14 10:00:32;;;;;;;19.55;17.55;;;;;;;;;;5466590;26;20006;-41
2024/04/14 10:03:06;;;;;;;20.75;18.23;;;;;;;;;;5466530;26;20099;-40
2024/04/14 10:05:34;;;;;;;20.05;18.00;;;;;;;;;;5466262;26;20015;-47
2024/04/14 10:08:01;;;;;;;20.73;17.85;;;;;;;;;;5466178;26;20007;-44
2024/04/14 10:10:28;;;;;;;21.42;17.80;;;;;;;;;;5466255;26;19987;-40
2024/04/14 10:12:54;;;;;;;21.33;17.23;;;;;;;;;;5466099;26;20253;-41
2024/04/14 10:15:24;;;;;;;23.08;18.48;;;;;;;;;;5466384;26;19995;-41
2024/04/14 10:18:06;;;;;;;21.40;17.63;;;;;;;;;;5466307;26;20091;-36
2024/04/14 10:20:41;;;;;;;23.33;18.27;;;;;;;;;;5465993;26;20211;-43
2024/04/14 10:23:08;;;;;;;28.73;18.17;;;;;;;;;;5466603;26;19992;-49
2024/04/14 10:25:34;;;;;;;26.05;17.40;;;;;;;;;;5466222;26;20104;-47
2024/04/14 10:28:05;;;;;;;19.80;17.05;;;;;;;;;;5466280;26;20003;-45
2024/04/14 10:30:32;;;;;;;23.63;17.73;;;;;;;;;;5466029;26;20099;-48
2024/04/14 10:33:02;;;;;;;24.15;18.65;;;;;;;;;;5466028;26;19986;-46
2024/04/14 10:35:29;;;;;;;26.85;17.60;;;;;;;;;;5464479;26;20036;-53
2024/04/14 10:37:56;;;;;;;32.05;18.30;;;;;;;;;;5465985;26;19998;-42
2024/04/14 10:40:23;;;;;;;32.22;18.58;;;;;;;;;;5465934;26;19983;-40
2024/04/14 10:42:49;;;;;;;30.13;18.63;;;;;;;;;;5465902;26;19987;-40
2024/04/14 10:45:28;;;;;;;23.55;18.73;;;;;;;;;;5466316;26;20087;-45
2024/04/14 10:47:57;;;;;;;26.65;18.65;;;;;;;;;;5465639;26;19982;-43
2024/04/14 10:50:25;;;;;;;22.00;17.30;;;;;;;;;;5465823;26;19983;-39
2024/04/14 10:52:52;;;;;;;27.70;18.98;;;;;;;;;;5438736;26;20049;-47
2024/04/14 10:55:18;;;;;;;25.77;19.33;;;;;;;;;;5429512;26;19984;-42
2024/04/14 10:57:45;;;;;;;29.50;19.05;;;;;;;;;;5429451;26;19991;-41
2024/04/14 11:00:12;;;;;;;30.92;19.77;;;;;;;;;;5429795;26;19995;-42
2024/04/14 11:02:39;;;;;;;27.25;18.63;;;;;;;;;;5434169;26;19986;-36
2024/04/14 11:05:06;;;;;;;27.85;19.20;;;;;;;;;;5461870;26;19991;-43
2024/04/14 11:07:32;;;;;;;31.42;19.58;;;;;;;;;;5465368;26;20048;-43
2024/04/14 11:09:59;;;;;;;29.83;19.27;;;;;;;;;;5465205;26;19999;-37
2024/04/14 11:12:26;;;;;;;31.23;19.67;;;;;;;;;;5457067;26;20097;-43
2024/04/14 11:14:52;;;;;;;26.20;18.55;;;;;;;;;;5429460;26;19996;-43
2024/04/14 11:17:19;;;;;;;26.25;19.10;;;;;;;;;;5429160;26;19998;-52
2024/04/14 11:19:46;;;;;;;35.78;19.25;;;;;;;;;;5429113;26;19995;-47
2024/04/14 11:22:19;;;;;;;34.42;19.77;;;;;;;;;;5429265;26;20012;-50
2024/04/14 11:24:51;;;;;;;30.52;19.40;;;;;;;;;;5429026;26;20037;-47
2024/04/14 11:27:18;;;;;;;27.17;19.52;;;;;;;;;;5429198;26;20193;-45
2024/04/14 11:29:44;;;;;;;25.70;18.63;;;;;;;;;;5429223;26;19983;-46
2024/04/14 11:35:16;;;;;;;31.15;20.38;;;;;;;;;;5322281;27;20086;-47
2024/04/14 11:37:45;;;;;;;27.27;18.92;;;;;;;;;;5379880;26;20211;-36
2024/04/14 11:40:14;;;;;;;24.35;19.73;;;;;;;;;;5400251;26;20205;-37
2024/04/14 11:42:41;;;;;;;26.63;19.80;;;;;;;;;;5428415;26;19991;-39
2024/04/14 11:45:10;;;;;;;28.92;19.48;;;;;;;;;;5428860;26;19992;-36
2024/04/14 11:47:37;;;;;;;33.47;20.08;;;;;;;;;;5431913;26;19980;-42
2024/04/14 11:50:03;;;;;;;24.52;19.50;;;;;;;;;;5432429;26;20049;-40
2024/04/14 11:52:30;;;;;;;25.17;19.75;;;;;;;;;;5432466;26;20210;-37
2024/04/14 11:54:56;;;;;;;22.17;18.77;;;;;;;;;;5432441;26;20092;-42
2024/04/14 11:57:23;;;;;;;24.65;19.30;;;;;;;;;;5425713;26;20101;-40
2024/04/14 11:59:51;;;;;;;31.25;20.05;;;;;;;;;;5416450;26;19991;-40
2024/04/14 12:02:18;;;;;;;29.33;19.52;;;;;;;;;;5432133;26;19987;-39
2024/04/14 12:04:45;;;;;;;23.88;19.33;;;;;;;;;;5456613;26;20018;-43
2024/04/14 12:07:12;;;;;;;29.13;20.15;;;;;;;;;;5432191;26;20044;-36
2024/04/14 12:09:38;;;;;;;28.10;19.17;;;;;;;;;;5458622;26;20145;-41
2024/04/14 12:12:05;;;;;;;30.08;19.42;;;;;;;;;;5464991;26;19995;-42
2024/04/14 12:14:32;;;;;;;25.23;19.45;;;;;;;;;;5411909;26;19990;-50
2024/04/14 12:16:59;;;;;;;29.40;19.15;;;;;;;;;;5432282;26;20015;-37
2024/04/14 12:19:26;;;;;;;25.13;19.10;;;;;;;;;;5431873;26;19991;-44
2024/04/14 12:21:53;;;;;;;21.85;18.67;;;;;;;;;;5447218;26;19991;-43
2024/04/14 12:24:19;;;;;;;30.42;19.25;;;;;;;;;;5468045;26;19990;-47
2024/04/14 12:26:46;;;;;;;24.13;19.25;;;;;;;;;;5467739;26;20011;-41
2024/04/14 12:29:13;;;;;;;24.17;18.20;;;;;;;;;;5467718;26;19987;-44
2024/04/14 12:31:39;;;;;;;20.02;17.83;;;;;;;;;;5467914;26;19995;-40
2024/04/14 12:34:06;;;;;;;24.85;17.90;;;;;;;;;;5436945;26;19988;-49
2024/04/14 12:36:32;;;;;;;21.70;16.58;;;;;;;;;;5429982;26;20100;-39
2024/04/14 12:38:59;;;;;;;19.75;16.02;;;;;;;;;;5421121;26;20000;-42
2024/04/14 12:41:25;;;;;;;16.98;15.27;;;;;;;;;;5460500;26;19987;-47
2024/04/14 12:43:52;;;;;;;25.52;16.58;;;;;;;;;;5467784;26;19994;-37
2024/04/14 12:46:19;;;;;;;20.38;15.95;;;;;;;;;;5467685;26;20170;-37
2024/04/14 12:48:45;;;;;;;20.40;16.23;;;;;;;;;;5464261;26;19990;-46
2024/04/14 12:51:12;;;;;;;18.95;15.93;;;;;;;;;;5435738;26;19983;-39
2024/04/14 12:53:39;;;;;;;18.55;16.80;;;;;;;;;;5442912;26;19999;-37
2024/04/14 12:56:06;;;;;;;18.85;16.25;;;;;;;;;;5430490;26;19996;-42
2024/04/14 12:58:32;;;;;;;24.15;16.90;;;;;;;;;;5374478;26;20021;-38
2024/04/14 13:01:00;;;;;;;21.88;17.27;;;;;;;;;;5378798;26;19996;-40
2024/04/14 13:03:29;;;;;;;24.00;17.23;;;;;;;;;;5374248;26;20020;-40
2024/04/14 13:05:56;;;;;;;22.50;17.00;;;;;;;;;;5377710;26;20007;-49
2024/04/14 13:08:23;;;;;;;21.88;15.95;;;;;;;;;;5361044;26;20213;-37
2024/04/14 13:10:49;;;;;;;30.05;17.67;;;;;;;;;;5372554;26;19992;-39
2024/04/14 13:13:16;;;;;;;23.65;18.65;;;;;;;;;;5383878;26;19996;-40
2024/04/14 13:15:44;;;;;;;22.90;16.85;;;;;;;;;;5390891;26;19996;-41
2024/04/14 13:18:11;;;;;;;29.75;17.95;;;;;;;;;;5380861;26;20007;-43
2024/04/14 13:20:37;;;;;;;20.63;18.23;;;;;;;;;;5380587;26;20016;-44
2024/04/14 13:23:04;;;;;;;21.83;18.30;;;;;;;;;;5383768;26;19993;-52
2024/04/14 13:25:30;;;;;;;25.58;19.30;;;;;;;;;;5394084;26;19999;-46
2024/04/14 13:27:57;;;;;;;21.98;19.67;;;;;;;;;;5391486;26;20007;-43
2024/04/14 13:30:23;;;;;;;30.23;20.30;;;;;;;;;;5395601;26;20016;-42
2024/04/14 13:32:50;;;;;;;25.63;19.55;;;;;;;;;;5395801;26;19988;-41
2024/04/14 13:35:17;;;;;;;24.80;20.63;;;;;;;;;;5395106;26;20005;-47
2024/04/14 13:37:44;;;;;;;24.00;20.92;;;;;;;;;;5395325;26;20142;-46
2024/04/14 13:40:11;;;;;;;25.15;20.95;;;;;;;;;;5394828;26;20066;-36
2024/04/14 13:42:39;;;;;;;27.58;21.95;;;;;;;;;;5395367;26;19992;-48
2024/04/14 13:45:06;;;;;;;31.50;23.35;;;;;;;;;;5388161;26;20204;-56
2024/04/14 13:47:33;;;;;;;36.80;23.30;;;;;;;;;;5387180;26;20008;-52
2024/04/14 13:49:59;;;;;;;32.90;23.38;;;;;;;;;;5388982;26;20023;-43
2024/04/14 13:52:30;;;;;;;33.53;25.98;;;;;;;;;;5395148;26;20127;-46
2024/04/14 13:54:58;;;;;;;33.72;26.70;;;;;;;;;;5401074;26;19998;-46
2024/04/14 13:57:25;;;;;;;35.38;26.48;;;;;;;;;;5414222;26;19999;-51
2024/04/14 13:59:52;;;;;;;40.08;28.17;;;;;;;;;;5429999;26;20058;-46
2024/04/14 14:02:18;;;;;;;35.47;28.83;;;;;;;;;;5429728;26;20028;-48
2024/04/14 14:04:46;;;;;;;37.20;29.90;;;;;;;;;;5429862;26;20015;-44
2024/04/14 14:07:13;;;;;;;37.13;29.45;;;;;;;;;;5430577;26;20024;-41
2024/04/14 14:09:39;;;;;;;32.47;28.20;;;;;;;;;;5434752;26;20020;-55
2024/04/14 14:12:06;;;;;;;35.05;29.80;;;;;;;;;;5436098;26;20204;-50
2024/04/14 14:14:33;;;;;;;37.83;31.45;;;;;;;;;;5450037;26;19995;-54
2024/04/14 14:17:00;;;;;;;97.03;35.90;;;;;;;;;;5440263;26;19994;-51